sensor_id;sensor_type;location;lat;lon;timestamp;pressure;altitude;pressure_sealevel;temperature;humidity
71666;BME280;59503;53.486;10.196;2023-02-26T00:00:53;101728.66;;;-2.22;100.00
71666;BME280;59503;53.486;10.196;2023-02-26T00:03:18;101735.00;;;-2.23;100.00
71666;BME280;59503;53.486;10.196;2023-02-26T00:05:44;101739.53;;;-2.23;100.00
71666;BME280;59503;53.486;10.196;2023-02-26T00:08:09;101735.38;;;-2.41;100.00
71666;BME280;59503;53.486;10.196;2023-02-26T00:10:34;101744.38;;;-2.47;100.00
71666;BME280;59503;53.486;10.196;2023-02-26T00:13:00;101733.13;;;-2.54;100.00
71666;BME280;59503;53.486;10.196;2023-02-26T00:15:26;101740.09;;;-2.48;100.00
71666;BME280;59503;53.486;10.196;2023-02-26T00:17:57;101744.00;;;-2.56;100.00
71666;BME280;59503;53.486;10.196;2023-02-26T00:20:25;101752.72;;;-2.60;100.00
71666;BME280;59503;53.486;10.196;2023-02-26T00:22:51;101761.97;;;-2.68;100.00
71666;BME280;59503;53.486;10.196;2023-02-26T00:25:17;101760.03;;;-2.72;100.00
71666;BME280;59503;53.486;10.196;2023-02-26T00:27:42;101755.09;;;-2.85;100.00
71666;BME280;59503;53.486;10.196;2023-02-26T00:30:09;101763.53;;;-2.93;100.00
71666;BME280;59503;53.486;10.196;2023-02-26T00:32:35;101773.47;;;-3.05;100.00
71666;BME280;59503;53.486;10.196;2023-02-26T00:35:01;101777.00;;;-3.21;100.00
71666;BME280;59503;53.486;10.196;2023-02-26T00:38:03;101777.63;;;-3.31;100.00
71666;BME280;59503;53.486;10.196;2023-02-26T00:40:37;101786.19;;;-3.45;100.00
71666;BME280;59503;53.486;10.196;2023-02-26T00:43:06;101780.50;;;-3.54;100.00
71666;BME280;59503;53.486;10.196;2023-02-26T00:45:32;101786.47;;;-3.63;100.00
71666;BME280;59503;53.486;10.196;2023-02-26T00:48:25;101788.47;;;-3.70;100.00
71666;BME280;59503;53.486;10.196;2023-02-26T00:51:01;101798.44;;;-3.78;100.00
71666;BME280;59503;53.486;10.196;2023-02-26T00:53:39;101808.03;;;-3.76;100.00
71666;BME280;59503;53.486;10.196;2023-02-26T00:56:08;101814.38;;;-3.78;100.00
71666;BME280;59503;53.486;10.196;2023-02-26T00:58:34;101820.66;;;-3.67;100.00
71666;BME280;59503;53.486;10.196;2023-02-26T01:00:59;101812.03;;;-3.57;100.00
71666;BME280;59503;53.486;10.196;2023-02-26T01:03:25;101814.47;;;-3.39;100.00
71666;BME280;59503;53.486;10.196;2023-02-26T01:05:51;101811.78;;;-3.23;100.00
71666;BME280;59503;53.486;10.196;2023-02-26T01:08:39;101818.84;;;-3.12;100.00
71666;BME280;59503;53.486;10.196;2023-02-26T01:11:07;101823.34;;;-3.12;100.00
71666;BME280;59503;53.486;10.196;2023-02-26T01:13:33;101821.19;;;-3.15;100.00
71666;BME280;59503;53.486;10.196;2023-02-26T01:16:04;101819.00;;;-3.02;100.00
71666;BME280;59503;53.486;10.196;2023-02-26T01:18:41;101814.50;;;-3.01;100.00
71666;BME280;59503;53.486;10.196;2023-02-26T01:21:14;101814.63;;;-2.91;100.00
71666;BME280;59503;53.486;10.196;2023-02-26T01:23:44;101820.75;;;-2.91;100.00
71666;BME280;59503;53.486;10.196;2023-02-26T01:26:22;101837.25;;;-2.89;100.00
71666;BME280;59503;53.486;10.196;2023-02-26T01:28:50;101835.41;;;-2.88;100.00
71666;BME280;59503;53.486;10.196;2023-02-26T01:31:32;101831.28;;;-2.79;100.00
71666;BME280;59503;53.486;10.196;2023-02-26T01:34:05;101837.31;;;-2.84;100.00
71666;BME280;59503;53.486;10.196;2023-02-26T01:36:40;101828.63;;;-2.79;100.00
71666;BME280;59503;53.486;10.196;2023-02-26T01:39:18;101834.53;;;-2.72;100.00
71666;BME280;59503;53.486;10.196;2023-02-26T01:41:50;101835.03;;;-2.75;100.00
71666;BME280;59503;53.486;10.196;2023-02-26T01:44:25;101839.84;;;-2.72;100.00
71666;BME280;59503;53.486;10.196;2023-02-26T01:47:03;101836.78;;;-2.64;100.00
71666;BME280;59503;53.486;10.196;2023-02-26T01:49:30;101849.53;;;-2.66;100.00
71666;BME280;59503;53.486;10.196;2023-02-26T01:52:04;101846.81;;;-2.71;100.00
71666;BME280;59503;53.486;10.196;2023-02-26T01:54:32;101849.53;;;-2.66;100.00
71666;BME280;59503;53.486;10.196;2023-02-26T01:57:03;101845.75;;;-2.70;100.00
71666;BME280;59503;53.486;10.196;2023-02-26T01:59:31;101845.03;;;-2.66;100.00
71666;BME280;59503;53.486;10.196;2023-02-26T02:01:58;101853.78;;;-2.65;100.00
71666;BME280;59503;53.486;10.196;2023-02-26T02:04:24;101845.81;;;-2.65;100.00
71666;BME280;59503;53.486;10.196;2023-02-26T02:06:52;101853.78;;;-2.65;100.00
71666;BME280;59503;53.486;10.196;2023-02-26T02:09:18;101860.16;;;-2.66;100.00
71666;BME280;59503;53.486;10.196;2023-02-26T02:12:16;101863.09;;;-2.68;100.00
71666;BME280;59503;53.486;10.196;2023-02-26T02:19:58;101870.44;;;-2.53;100.00
71666;BME280;59503;53.486;10.196;2023-02-26T02:22:45;101877.88;;;-2.55;100.00
71666;BME280;59503;53.486;10.196;2023-02-26T02:34:11;101891.28;;;-2.67;100.00
71666;BME280;59503;53.486;10.196;2023-02-26T02:36:43;101902.81;;;-2.61;100.00
71666;BME280;59503;53.486;10.196;2023-02-26T02:39:19;101907.06;;;-2.60;100.00
71666;BME280;59503;53.486;10.196;2023-02-26T02:41:58;101915.31;;;-2.62;100.00
71666;BME280;59503;53.486;10.196;2023-02-26T02:44:27;101918.59;;;-2.55;100.00
71666;BME280;59503;53.486;10.196;2023-02-26T02:46:55;101926.59;;;-2.55;100.00
71666;BME280;59503;53.486;10.196;2023-02-26T02:49:33;101923.34;;;-2.57;100.00
71666;BME280;59503;53.486;10.196;2023-02-26T02:52:05;101920.44;;;-2.55;100.00
71666;BME280;59503;53.486;10.196;2023-02-26T02:54:45;101929.09;;;-2.65;100.00
71666;BME280;59503;53.486;10.196;2023-02-26T02:57:21;101931.28;;;-2.62;100.00
71666;BME280;59503;53.486;10.196;2023-02-26T02:59:52;101935.25;;;-2.64;100.00
71666;BME280;59503;53.486;10.196;2023-02-26T03:05:13;101949.50;;;-2.70;100.00
71666;BME280;59503;53.486;10.196;2023-02-26T03:07:52;101936.94;;;-2.75;100.00
71666;BME280;59503;53.486;10.196;2023-02-26T03:10:19;101954.50;;;-2.74;100.00
71666;BME280;59503;53.486;10.196;2023-02-26T03:12:45;101961.88;;;-2.81;100.00
71666;BME280;59503;53.486;10.196;2023-02-26T03:15:11;101964.53;;;-2.81;100.00
71666;BME280;59503;53.486;10.196;2023-02-26T03:20:28;101976.13;;;-2.70;100.00
71666;BME280;59503;53.486;10.196;2023-02-26T03:23:10;101969.69;;;-2.74;100.00
71666;BME280;59503;53.486;10.196;2023-02-26T03:26:02;101973.44;;;-2.70;100.00
71666;BME280;59503;53.486;10.196;2023-02-26T03:34:07;101965.31;;;-2.80;100.00
71666;BME280;59503;53.486;10.196;2023-02-26T03:39:13;101982.41;;;-2.76;100.00
71666;BME280;59503;53.486;10.196;2023-02-26T03:44:43;101990.72;;;-2.73;100.00
71666;BME280;59503;53.486;10.196;2023-02-26T03:47:13;101991.75;;;-2.74;100.00
71666;BME280;59503;53.486;10.196;2023-02-26T03:50:10;102002.72;;;-2.70;100.00
71666;BME280;59503;53.486;10.196;2023-02-26T03:52:39;101998.94;;;-2.74;100.00
71666;BME280;59503;53.486;10.196;2023-02-26T03:55:14;102007.72;;;-2.74;100.00
71666;BME280;59503;53.486;10.196;2023-02-26T03:57:41;102012.09;;;-2.84;100.00
71666;BME280;59503;53.486;10.196;2023-02-26T04:00:08;102017.41;;;-2.84;100.00
71666;BME280;59503;53.486;10.196;2023-02-26T04:05:31;102017.88;;;-2.87;100.00
71666;BME280;59503;53.486;10.196;2023-02-26T04:07:59;102012.72;;;-2.94;100.00
71666;BME280;59503;53.486;10.196;2023-02-26T04:10:36;102039.16;;;-2.87;100.00
71666;BME280;59503;53.486;10.196;2023-02-26T04:13:02;102037.31;;;-2.87;100.00
71666;BME280;59503;53.486;10.196;2023-02-26T04:15:28;102034.31;;;-2.90;100.00
71666;BME280;59503;53.486;10.196;2023-02-26T04:17:53;102040.47;;;-2.90;100.00
71666;BME280;59503;53.486;10.196;2023-02-26T04:20:19;102033.44;;;-2.96;100.00
71666;BME280;59503;53.486;10.196;2023-02-26T04:22:44;102041.81;;;-2.87;100.00
71666;BME280;59503;53.486;10.196;2023-02-26T04:25:10;102046.25;;;-2.93;100.00
71666;BME280;59503;53.486;10.196;2023-02-26T04:27:35;102044.97;;;-2.90;100.00
71666;BME280;59503;53.486;10.196;2023-02-26T04:30:01;102060.44;;;-2.87;100.00
71666;BME280;59503;53.486;10.196;2023-02-26T04:32:27;102051.09;;;-2.90;100.00
71666;BME280;59503;53.486;10.196;2023-02-26T04:34:52;102055.84;;;-2.92;100.00
71666;BME280;59503;53.486;10.196;2023-02-26T04:37:18;102052.28;;;-2.97;100.00
71666;BME280;59503;53.486;10.196;2023-02-26T04:39:43;102061.56;;;-3.00;100.00
71666;BME280;59503;53.486;10.196;2023-02-26T04:42:08;102063.97;;;-2.98;100.00
71666;BME280;59503;53.486;10.196;2023-02-26T04:44:34;102067.69;;;-2.99;100.00
71666;BME280;59503;53.486;10.196;2023-02-26T04:46:59;102079.94;;;-2.98;100.00
71666;BME280;59503;53.486;10.196;2023-02-26T04:49:25;102075.34;;;-3.03;100.00
71666;BME280;59503;53.486;10.196;2023-02-26T04:51:50;102073.97;;;-3.05;100.00
71666;BME280;59503;53.486;10.196;2023-02-26T04:54:15;102081.84;;;-3.10;100.00
71666;BME280;59503;53.486;10.196;2023-02-26T04:56:41;102078.53;;;-3.17;100.00
71666;BME280;59503;53.486;10.196;2023-02-26T04:59:06;102091.47;;;-3.21;100.00
71666;BME280;59503;53.486;10.196;2023-02-26T05:01:32;102097.13;;;-3.17;100.00
71666;BME280;59503;53.486;10.196;2023-02-26T05:03:57;102096.78;;;-3.21;100.00
71666;BME280;59503;53.486;10.196;2023-02-26T05:06:23;102094.03;;;-3.26;100.00
71666;BME280;59503;53.486;10.196;2023-02-26T05:08:49;102103.31;;;-3.28;100.00
71666;BME280;59503;53.486;10.196;2023-02-26T05:11:14;102101.13;;;-3.31;100.00
71666;BME280;59503;53.486;10.196;2023-02-26T05:13:40;102101.59;;;-3.34;100.00
71666;BME280;59503;53.486;10.196;2023-02-26T05:16:06;102108.53;;;-3.33;100.00
71666;BME280;59503;53.486;10.196;2023-02-26T05:18:31;102096.19;;;-3.39;100.00
71666;BME280;59503;53.486;10.196;2023-02-26T05:20:57;102112.00;;;-3.33;100.00
71666;BME280;59503;53.486;10.196;2023-02-26T05:23:22;102121.91;;;-3.28;100.00
71666;BME280;59503;53.486;10.196;2023-02-26T05:25:48;102133.59;;;-3.29;100.00
71666;BME280;59503;53.486;10.196;2023-02-26T05:28:14;102118.44;;;-3.29;100.00
71666;BME280;59503;53.486;10.196;2023-02-26T05:30:40;102124.19;;;-3.20;100.00
71666;BME280;59503;53.486;10.196;2023-02-26T05:33:05;102129.84;;;-3.17;100.00
71666;BME280;59503;53.486;10.196;2023-02-26T05:35:31;102124.19;;;-3.20;100.00
71666;BME280;59503;53.486;10.196;2023-02-26T05:37:56;102122.13;;;-3.18;100.00
71666;BME280;59503;53.486;10.196;2023-02-26T05:40:23;102130.19;;;-3.13;100.00
71666;BME280;59503;53.486;10.196;2023-02-26T05:42:48;102121.88;;;-3.17;100.00
71666;BME280;59503;53.486;10.196;2023-02-26T05:45:14;102136.56;;;-3.14;100.00
71666;BME280;59503;53.486;10.196;2023-02-26T05:47:39;102144.53;;;-3.14;100.00
71666;BME280;59503;53.486;10.196;2023-02-26T05:50:05;102136.91;;;-3.22;100.00
71666;BME280;59503;53.486;10.196;2023-02-26T05:52:31;102147.41;;;-3.16;100.00
71666;BME280;59503;53.486;10.196;2023-02-26T05:54:57;102157.94;;;-3.09;100.00
71666;BME280;59503;53.486;10.196;2023-02-26T05:57:22;102166.34;;;-3.12;100.00
71666;BME280;59503;53.486;10.196;2023-02-26T05:59:48;102167.50;;;-3.08;100.00
71666;BME280;59503;53.486;10.196;2023-02-26T06:02:14;102170.66;;;-3.11;100.00
71666;BME280;59503;53.486;10.196;2023-02-26T06:04:39;102177.22;;;-3.14;100.00
71666;BME280;59503;53.486;10.196;2023-02-26T06:07:05;102182.78;;;-3.15;100.00
71666;BME280;59503;53.486;10.196;2023-02-26T06:09:30;102174.91;;;-3.10;100.00
71666;BME280;59503;53.486;10.196;2023-02-26T06:11:56;102182.22;;;-3.17;100.00
71666;BME280;59503;53.486;10.196;2023-02-26T06:14:21;102185.94;;;-3.18;100.00
71666;BME280;59503;53.486;10.196;2023-02-26T06:16:47;102187.53;;;-3.17;100.00
71666;BME280;59503;53.486;10.196;2023-02-26T06:19:12;102192.28;;;-3.19;100.00
71666;BME280;59503;53.486;10.196;2023-02-26T06:21:37;102196.56;;;-3.18;100.00
71666;BME280;59503;53.486;10.196;2023-02-26T06:24:03;102203.47;;;-3.17;100.00
71666;BME280;59503;53.486;10.196;2023-02-26T06:26:28;102209.41;;;-3.27;100.00
71666;BME280;59503;53.486;10.196;2023-02-26T06:28:54;102206.66;;;-3.32;100.00
71666;BME280;59503;53.486;10.196;2023-02-26T06:31:19;102202.81;;;-3.24;100.00
71666;BME280;59503;53.486;10.196;2023-02-26T06:33:44;102214.13;;;-3.17;100.00
71666;BME280;59503;53.486;10.196;2023-02-26T06:36:10;102217.00;;;-3.19;100.00
71666;BME280;59503;53.486;10.196;2023-02-26T06:38:36;102229.41;;;-3.24;100.00
71666;BME280;59503;53.486;10.196;2023-02-26T06:41:01;102229.41;;;-3.24;100.00
71666;BME280;59503;53.486;10.196;2023-02-26T06:43:27;102229.50;;;-3.08;100.00
71666;BME280;59503;53.486;10.196;2023-02-26T06:45:56;102238.91;;;-2.89;100.00
71666;BME280;59503;53.486;10.196;2023-02-26T06:48:21;102247.84;;;-2.67;100.00
71666;BME280;59503;53.486;10.196;2023-02-26T06:50:47;102257.44;;;-2.54;100.00
71666;BME280;59503;53.486;10.196;2023-02-26T06:53:12;102262.47;;;-2.41;100.00
71666;BME280;59503;53.486;10.196;2023-02-26T06:55:45;102256.34;;;-2.25;100.00
71666;BME280;59503;53.486;10.196;2023-02-26T06:58:12;102258.31;;;-2.20;100.00
71666;BME280;59503;53.486;10.196;2023-02-26T07:00:38;102253.94;;;-2.10;100.00
71666;BME280;59503;53.486;10.196;2023-02-26T07:03:06;102263.16;;;-2.01;100.00
71666;BME280;59503;53.486;10.196;2023-02-26T07:05:32;102260.50;;;-1.84;100.00
71666;BME280;59503;53.486;10.196;2023-02-26T07:07:57;102262.75;;;-1.76;100.00
71666;BME280;59503;53.486;10.196;2023-02-26T07:10:23;102277.06;;;-1.66;100.00
71666;BME280;59503;53.486;10.196;2023-02-26T07:12:50;102276.09;;;-1.43;100.00
71666;BME280;59503;53.486;10.196;2023-02-26T07:15:15;102275.66;;;-1.35;100.00
71666;BME280;59503;53.486;10.196;2023-02-26T07:17:41;102284.78;;;-1.14;100.00
71666;BME280;59503;53.486;10.196;2023-02-26T07:20:07;102282.69;;;-1.07;99.51
71666;BME280;59503;53.486;10.196;2023-02-26T07:22:35;102298.56;;;-0.79;100.00
71666;BME280;59503;53.486;10.196;2023-02-26T07:25:03;102305.88;;;-0.70;97.51
71666;BME280;59503;53.486;10.196;2023-02-26T07:27:28;102305.56;;;-0.52;98.19
71666;BME280;59503;53.486;10.196;2023-02-26T07:29:54;102302.28;;;-0.37;97.70
71666;BME280;59503;53.486;10.196;2023-02-26T07:32:20;102312.75;;;-0.04;95.11
71666;BME280;59503;53.486;10.196;2023-02-26T07:34:46;102304.16;;;0.21;94.36
71666;BME280;59503;53.486;10.196;2023-02-26T07:37:11;102320.78;;;0.59;89.92
71666;BME280;59503;53.486;10.196;2023-02-26T07:39:37;102314.34;;;0.24;92.49
71666;BME280;59503;53.486;10.196;2023-02-26T07:42:03;102314.69;;;0.00;93.97
71666;BME280;59503;53.486;10.196;2023-02-26T07:44:28;102316.69;;;0.47;90.34
71666;BME280;59503;53.486;10.196;2023-02-26T07:46:54;102313.94;;;0.37;91.51
71666;BME280;59503;53.486;10.196;2023-02-26T07:49:19;102324.41;;;0.43;90.18
71666;BME280;59503;53.486;10.196;2023-02-26T07:51:45;102325.03;;;0.50;91.61
71666;BME280;59503;53.486;10.196;2023-02-26T07:54:12;102334.25;;;0.69;90.21
71666;BME280;59503;53.486;10.196;2023-02-26T07:56:38;102321.63;;;0.65;90.12
71666;BME280;59503;53.486;10.196;2023-02-26T07:59:04;102316.19;;;0.91;88.77
71666;BME280;59503;53.486;10.196;2023-02-26T08:01:29;102328.06;;;1.05;87.64
71666;BME280;59503;53.486;10.196;2023-02-26T08:03:55;102325.31;;;0.95;86.94
71666;BME280;59503;53.486;10.196;2023-02-26T08:06:20;102339.91;;;1.19;87.28
71666;BME280;59503;53.486;10.196;2023-02-26T08:08:46;102344.38;;;1.56;84.94
71666;BME280;59503;53.486;10.196;2023-02-26T08:11:12;102346.34;;;1.90;83.20
71666;BME280;59503;53.486;10.196;2023-02-26T08:13:37;102342.34;;;1.98;83.38
71666;BME280;59503;53.486;10.196;2023-02-26T08:16:03;102351.69;;;1.80;82.70
71666;BME280;59503;53.486;10.196;2023-02-26T08:18:28;102359.41;;;1.72;82.08
71666;BME280;59503;53.486;10.196;2023-02-26T08:20:54;102346.59;;;1.89;83.13
71666;BME280;59503;53.486;10.196;2023-02-26T08:23:19;102342.09;;;2.04;82.14
71666;BME280;59503;53.486;10.196;2023-02-26T08:25:44;102346.88;;;1.82;83.95
71666;BME280;59503;53.486;10.196;2023-02-26T08:28:10;102352.53;;;1.91;83.18
71666;BME280;59503;53.486;10.196;2023-02-26T08:30:36;102345.22;;;1.66;83.63
71666;BME280;59503;53.486;10.196;2023-02-26T08:33:01;102358.94;;;1.80;83.17
71666;BME280;59503;53.486;10.196;2023-02-26T08:35:27;102361.66;;;2.00;82.64
71666;BME280;59503;53.486;10.196;2023-02-26T08:37:52;102366.50;;;2.13;81.77
71666;BME280;59503;53.486;10.196;2023-02-26T08:40:19;102369.75;;;2.30;80.86
71666;BME280;59503;53.486;10.196;2023-02-26T08:42:44;102367.06;;;2.10;81.97
71666;BME280;59503;53.486;10.196;2023-02-26T08:45:10;102386.31;;;2.07;82.68
71666;BME280;59503;53.486;10.196;2023-02-26T08:47:36;102389.06;;;2.52;82.28
71666;BME280;59503;53.486;10.196;2023-02-26T08:50:03;102401.44;;;2.78;79.75
71666;BME280;59503;53.486;10.196;2023-02-26T08:52:28;102405.69;;;3.14;78.67
71666;BME280;59503;53.486;10.196;2023-02-26T08:54:54;102408.06;;;3.46;76.06
71666;BME280;59503;53.486;10.196;2023-02-26T08:57:19;102405.66;;;3.44;75.64
71666;BME280;59503;53.486;10.196;2023-02-26T08:59:45;102415.06;;;3.37;77.02
71666;BME280;59503;53.486;10.196;2023-02-26T09:02:11;102412.63;;;3.50;76.32
71666;BME280;59503;53.486;10.196;2023-02-26T09:04:37;102416.88;;;3.61;75.45
71666;BME280;59503;53.486;10.196;2023-02-26T09:07:03;102412.53;;;3.75;76.14
71666;BME280;59503;53.486;10.196;2023-02-26T09:09:28;102416.22;;;3.95;72.75
71666;BME280;59503;53.486;10.196;2023-02-26T09:11:54;102418.75;;;4.25;70.90
71666;BME280;59503;53.486;10.196;2023-02-26T09:14:19;102425.50;;;4.61;70.71
71666;BME280;59503;53.486;10.196;2023-02-26T09:16:45;102440.34;;;4.10;70.15
71666;BME280;59503;53.486;10.196;2023-02-26T09:19:10;102442.91;;;4.35;68.71
71666;BME280;59503;53.486;10.196;2023-02-26T09:21:35;102443.81;;;4.59;63.93
71666;BME280;59503;53.486;10.196;2023-02-26T09:24:01;102443.13;;;4.82;64.78
71666;BME280;59503;53.486;10.196;2023-02-26T09:26:27;102455.00;;;4.76;62.83
71666;BME280;59503;53.486;10.196;2023-02-26T09:28:52;102448.84;;;4.32;61.10
71666;BME280;59503;53.486;10.196;2023-02-26T09:31:18;102456.34;;;4.40;62.90
71666;BME280;59503;53.486;10.196;2023-02-26T09:33:43;102461.59;;;4.60;62.38
71666;BME280;59503;53.486;10.196;2023-02-26T09:36:09;102458.94;;;4.55;60.85
71666;BME280;59503;53.486;10.196;2023-02-26T09:38:34;102461.97;;;4.82;58.88
71666;BME280;59503;53.486;10.196;2023-02-26T09:41:12;102455.22;;;4.46;60.63
71666;BME280;59503;53.486;10.196;2023-02-26T09:51:55;102469.53;;;5.14;54.58
71666;BME280;59503;53.486;10.196;2023-02-26T09:54:25;102466.78;;;5.47;53.58
71666;BME280;59503;53.486;10.196;2023-02-26T09:56:55;102471.22;;;5.33;56.14
71666;BME280;59503;53.486;10.196;2023-02-26T09:59:22;102472.56;;;5.36;53.72
71666;BME280;59503;53.486;10.196;2023-02-26T10:02:22;102474.03;;;5.23;54.39
71666;BME280;59503;53.486;10.196;2023-02-26T10:05:04;102478.31;;;5.29;54.47
71666;BME280;59503;53.486;10.196;2023-02-26T10:13:39;102480.00;;;4.43;57.29
71666;BME280;59503;53.486;10.196;2023-02-26T10:16:11;102486.97;;;4.49;56.71
71666;BME280;59503;53.486;10.196;2023-02-26T10:18:44;102482.06;;;4.56;56.67
71666;BME280;59503;53.486;10.196;2023-02-26T10:21:17;102492.28;;;4.59;57.16
71666;BME280;59503;53.486;10.196;2023-02-26T10:23:52;102481.00;;;4.57;55.26
71666;BME280;59503;53.486;10.196;2023-02-26T10:26:30;102484.66;;;4.27;55.39
71666;BME280;59503;53.486;10.196;2023-02-26T10:35:04;102493.38;;;4.09;56.54
71666;BME280;59503;53.486;10.196;2023-02-26T10:48:03;102521.25;;;4.33;57.93
71666;BME280;59503;53.486;10.196;2023-02-26T10:50:32;102533.78;;;4.58;56.56
71666;BME280;59503;53.486;10.196;2023-02-26T10:52:58;102518.75;;;4.52;58.59
71666;BME280;59503;53.486;10.196;2023-02-26T10:55:28;102518.97;;;4.55;57.19
71666;BME280;59503;53.486;10.196;2023-02-26T11:00:30;102513.72;;;4.30;58.35
71666;BME280;59503;53.486;10.196;2023-02-26T11:02:56;102516.69;;;4.24;59.32
71666;BME280;59503;53.486;10.196;2023-02-26T11:05:25;102523.75;;;4.20;59.88
71666;BME280;59503;53.486;10.196;2023-02-26T11:07:58;102512.47;;;4.08;60.37
71666;BME280;59503;53.486;10.196;2023-02-26T11:10:36;102519.97;;;4.16;59.69
71666;BME280;59503;53.486;10.196;2023-02-26T11:13:03;102525.88;;;4.18;59.64
71666;BME280;59503;53.486;10.196;2023-02-26T11:15:29;102529.06;;;4.35;58.59
71666;BME280;59503;53.486;10.196;2023-02-26T11:17:56;102519.94;;;4.26;58.98
71666;BME280;59503;53.486;10.196;2023-02-26T11:20:30;102525.41;;;4.59;59.30
71666;BME280;59503;53.486;10.196;2023-02-26T11:22:58;102534.09;;;4.95;57.88
71666;BME280;59503;53.486;10.196;2023-02-26T11:25:28;102528.13;;;5.32;56.56
71666;BME280;59503;53.486;10.196;2023-02-26T11:27:59;102525.78;;;5.82;56.22
71666;BME280;59503;53.486;10.196;2023-02-26T11:30:29;102522.16;;;6.15;55.68
71666;BME280;59503;53.486;10.196;2023-02-26T11:32:57;102528.34;;;5.97;55.72
71666;BME280;59503;53.486;10.196;2023-02-26T11:35:24;102529.81;;;5.80;54.79
71666;BME280;59503;53.486;10.196;2023-02-26T11:37:58;102529.59;;;5.19;57.57
71666;BME280;59503;53.486;10.196;2023-02-26T11:40:37;102528.19;;;5.27;57.15
71666;BME280;59503;53.486;10.196;2023-02-26T11:43:10;102536.34;;;4.78;58.40
71666;BME280;59503;53.486;10.196;2023-02-26T11:45:40;102533.25;;;4.56;59.00
71666;BME280;59503;53.486;10.196;2023-02-26T11:48:09;102537.72;;;4.17;60.58
71666;BME280;59503;53.486;10.196;2023-02-26T11:50:41;102523.75;;;4.15;60.65
71666;BME280;59503;53.486;10.196;2023-02-26T11:53:22;102536.06;;;4.31;60.94
71666;BME280;59503;53.486;10.196;2023-02-26T11:55:52;102541.44;;;4.31;60.63
71666;BME280;59503;53.486;10.196;2023-02-26T11:58:21;102534.47;;;4.25;59.98
71666;BME280;59503;53.486;10.196;2023-02-26T12:00:47;102529.72;;;3.97;61.09
71666;BME280;59503;53.486;10.196;2023-02-26T12:03:22;102526.97;;;4.12;61.44
71666;BME280;59503;53.486;10.196;2023-02-26T12:05:49;102514.53;;;4.26;61.65
71666;BME280;59503;53.486;10.196;2023-02-26T12:08:30;102523.59;;;4.50;61.54
71666;BME280;59503;53.486;10.196;2023-02-26T12:19:37;102532.38;;;5.04;58.88
71666;BME280;59503;53.486;10.196;2023-02-26T12:45:18;102541.47;;;4.21;66.89
71666;BME280;59503;53.486;10.196;2023-02-26T12:59:17;102549.88;;;4.09;71.20
71666;BME280;59503;53.486;10.196;2023-02-26T13:04:40;102546.25;;;4.34;69.64
71666;BME280;59503;53.486;10.196;2023-02-26T13:07:20;102534.19;;;4.31;67.55
71666;BME280;59503;53.486;10.196;2023-02-26T13:10:07;102543.56;;;4.39;69.05
71666;BME280;59503;53.486;10.196;2023-02-26T13:12:51;102533.38;;;4.31;69.19
71666;BME280;59503;53.486;10.196;2023-02-26T13:15:26;102539.25;;;4.43;68.85
71666;BME280;59503;53.486;10.196;2023-02-26T13:21:02;102535.16;;;4.94;64.44
71666;BME280;59503;53.486;10.196;2023-02-26T13:23:50;102536.34;;;5.17;65.87
71666;BME280;59503;53.486;10.196;2023-02-26T13:26:17;102537.03;;;5.32;64.07
71666;BME280;59503;53.486;10.196;2023-02-26T13:28:48;102532.59;;;5.13;64.61
71666;BME280;59503;53.486;10.196;2023-02-26T13:31:28;102542.69;;;4.97;64.87
71666;BME280;59503;53.486;10.196;2023-02-26T13:33:58;102534.69;;;4.87;66.82
71666;BME280;59503;53.486;10.196;2023-02-26T13:36:26;102540.63;;;4.79;64.93
71666;BME280;59503;53.486;10.196;2023-02-26T13:41:49;102533.44;;;5.08;62.94
71666;BME280;59503;53.486;10.196;2023-02-26T13:44:41;102528.94;;;4.98;62.79
71666;BME280;59503;53.486;10.196;2023-02-26T13:47:38;102537.78;;;5.04;63.07
71666;BME280;59503;53.486;10.196;2023-02-26T13:52:52;102532.09;;;5.44;60.27
71666;BME280;59503;53.486;10.196;2023-02-26T13:55:45;102528.28;;;5.45;59.76
71666;BME280;59503;53.486;10.196;2023-02-26T14:00:58;102532.34;;;5.14;60.88
71666;BME280;59503;53.486;10.196;2023-02-26T14:03:32;102537.84;;;4.94;61.63
71666;BME280;59503;53.486;10.196;2023-02-26T14:06:25;102535.75;;;4.86;61.48
71666;BME280;59503;53.486;10.196;2023-02-26T14:09:03;102546.38;;;4.67;61.02
71666;BME280;59503;53.486;10.196;2023-02-26T14:11:44;102545.66;;;4.57;61.99
71666;BME280;59503;53.486;10.196;2023-02-26T14:16:44;102535.53;;;4.24;64.38
71666;BME280;59503;53.486;10.196;2023-02-26T14:19:21;102542.31;;;4.21;65.78
71666;BME280;59503;53.486;10.196;2023-02-26T14:21:53;102541.47;;;4.21;66.32
71666;BME280;59503;53.486;10.196;2023-02-26T14:24:50;102538.50;;;4.22;66.57
71666;BME280;59503;53.486;10.196;2023-02-26T14:29:57;102537.44;;;4.23;67.26
71666;BME280;59503;53.486;10.196;2023-02-26T14:32:48;102536.53;;;4.43;64.96
71666;BME280;59503;53.486;10.196;2023-02-26T14:35:20;102545.09;;;4.55;66.33
71666;BME280;59503;53.486;10.196;2023-02-26T14:37:55;102551.72;;;4.72;66.40
71666;BME280;59503;53.486;10.196;2023-02-26T14:40:23;102539.03;;;4.78;66.47
71666;BME280;59503;53.486;10.196;2023-02-26T14:42:55;102552.03;;;4.66;67.45
71666;BME280;59503;53.486;10.196;2023-02-26T14:45:35;102541.66;;;4.44;67.19
71666;BME280;59503;53.486;10.196;2023-02-26T14:48:05;102525.69;;;3.94;69.20
71666;BME280;59503;53.486;10.196;2023-02-26T14:53:18;102535.59;;;4.14;68.25
71666;BME280;59503;53.486;10.196;2023-02-26T14:56:00;102550.47;;;3.86;70.18
71666;BME280;59503;53.486;10.196;2023-02-26T15:12:29;102554.19;;;4.00;69.76
71666;BME280;59503;53.486;10.196;2023-02-26T15:17:57;102542.66;;;3.95;72.53
71666;BME280;59503;53.486;10.196;2023-02-26T15:25:50;102548.84;;;3.85;70.26
71666;BME280;59503;53.486;10.196;2023-02-26T15:28:26;102554.50;;;3.83;71.05